Time;durP1;ratioP1;P1;durP2;ratioP2;P2;SDS_P1;SDS_P2;PMS_P1;PMS_P2;Temp;Humidity;BMP_temperature;BMP_pressure;BME280_temperature;BME280_humidity;BME280_pressure;Samples;Min_cycle;Max_cycle;Signal;HPM_P1;HPM_P2
2022/09/03 00:01:37;;;;;;;13.35;8.45;;;;;;;;;;4392635;32;20566;-67
2022/09/03 00:04:45;;;;;;;13.95;8.38;;;;;;;;;;4390581;32;20518;-68
2022/09/03 00:07:17;;;;;;;13.52;8.27;;;;;;;;;;4359688;32;20078;-69
2022/09/03 00:09:49;;;;;;;14.63;8.52;;;;;;;;;;4385586;32;20448;-68
2022/09/03 00:12:28;;;;;;;13.90;8.05;;;;;;;;;;4391129;32;20174;-69
2022/09/03 00:15:03;;;;;;;15.43;8.85;;;;;;;;;;4390866;32;20516;-68
2022/09/03 00:18:08;;;;;;;12.02;8.30;;;;;;;;;;4378802;32;20082;-69
2022/09/03 00:20:44;;;;;;;12.68;7.75;;;;;;;;;;4387565;32;20155;-68
2022/09/03 00:23:26;;;;;;;15.00;8.32;;;;;;;;;;4390541;32;20532;-69
2022/09/03 00:26:26;;;;;;;14.35;7.53;;;;;;;;;;4390851;32;20091;-69
2022/09/03 00:29:02;;;;;;;12.18;7.68;;;;;;;;;;4401605;32;20089;-68
2022/09/03 00:31:38;;;;;;;14.13;7.70;;;;;;;;;;4390625;32;20170;-68
2022/09/03 00:34:21;;;;;;;11.90;7.97;;;;;;;;;;4390711;32;20535;-69
2022/09/03 00:36:48;;;;;;;12.37;7.37;;;;;;;;;;4390916;32;20508;-68
2022/09/03 00:39:17;;;;;;;14.70;8.40;;;;;;;;;;4390421;32;20572;-68
2022/09/03 00:42:18;;;;;;;15.55;8.00;;;;;;;;;;4378531;32;20085;-68
2022/09/03 00:45:19;;;;;;;11.77;7.65;;;;;;;;;;4392056;32;20490;-69
2022/09/03 00:47:51;;;;;;;16.75;8.77;;;;;;;;;;4378248;32;20078;-69
2022/09/03 00:50:28;;;;;;;12.82;7.62;;;;;;;;;;4391661;32;20085;-68
2022/09/03 00:53:07;;;;;;;14.27;7.80;;;;;;;;;;4391565;32;20124;-69
2022/09/03 00:55:55;;;;;;;12.57;7.82;;;;;;;;;;4377682;32;20456;-68
2022/09/03 00:58:22;;;;;;;13.95;7.95;;;;;;;;;;4391497;32;20536;-68
2022/09/03 01:00:51;;;;;;;11.48;7.15;;;;;;;;;;4391567;32;20085;-68
2022/09/03 01:03:36;;;;;;;13.40;7.70;;;;;;;;;;4390040;32;20515;-68
2022/09/03 01:06:17;;;;;;;14.35;8.70;;;;;;;;;;4391441;32;20097;-68
2022/09/03 01:08:45;;;;;;;13.02;9.10;;;;;;;;;;4391356;32;20080;-68
2022/09/03 01:11:16;;;;;;;13.52;8.85;;;;;;;;;;4391343;32;20085;-68
2022/09/03 01:13:53;;;;;;;11.45;7.68;;;;;;;;;;4391430;32;20076;-69
2022/09/03 01:16:47;;;;;;;14.95;8.30;;;;;;;;;;4390105;32;20561;-69
2022/09/03 01:19:26;;;;;;;16.20;9.68;;;;;;;;;;4391281;32;20154;-69
2022/09/03 01:22:07;;;;;;;13.27;9.13;;;;;;;;;;4391167;32;20088;-69
2022/09/03 01:24:40;;;;;;;14.75;9.35;;;;;;;;;;4389954;32;20080;-68
2022/09/03 01:27:25;;;;;;;14.82;9.57;;;;;;;;;;4389839;32;20141;-69
2022/09/03 01:30:11;;;;;;;13.55;9.68;;;;;;;;;;4389884;32;20525;-68
2022/09/03 01:32:49;;;;;;;15.32;10.50;;;;;;;;;;4389946;32;20095;-68
2022/09/03 01:35:26;;;;;;;14.40;10.23;;;;;;;;;;4391278;32;20073;-68
2022/09/03 01:38:19;;;;;;;15.30;10.70;;;;;;;;;;4391342;32;20161;-68
2022/09/03 01:40:55;;;;;;;15.90;10.10;;;;;;;;;;4377841;32;20081;-69
2022/09/03 01:43:41;;;;;;;14.43;9.68;;;;;;;;;;4391211;32;20173;-68
2022/09/03 01:46:26;;;;;;;16.77;10.15;;;;;;;;;;4390158;32;20069;-68
2022/09/03 01:49:15;;;;;;;13.23;9.45;;;;;;;;;;4391317;32;20077;-69
2022/09/03 01:51:42;;;;;;;13.80;10.05;;;;;;;;;;4390267;32;20081;-69
2022/09/03 01:54:11;;;;;;;16.25;10.88;;;;;;;;;;4389554;32;20176;-68
2022/09/03 01:56:59;;;;;;;15.90;9.68;;;;;;;;;;4391089;32;20068;-69
2022/09/03 01:59:52;;;;;;;13.93;9.93;;;;;;;;;;4391207;32;20086;-69
2022/09/03 02:02:27;;;;;;;12.35;9.30;;;;;;;;;;4396126;32;20066;-68
2022/09/03 02:05:07;;;;;;;13.93;9.77;;;;;;;;;;4390042;32;20093;-68
2022/09/03 02:07:37;;;;;;;13.27;9.57;;;;;;;;;;4389538;32;20583;-68
2022/09/03 02:10:07;;;;;;;16.12;9.00;;;;;;;;;;4389529;32;20519;-69
2022/09/03 02:12:36;;;;;;;13.93;9.32;;;;;;;;;;4390335;32;20174;-68
2022/09/03 02:15:06;;;;;;;15.07;10.32;;;;;;;;;;4389873;32;20085;-68
2022/09/03 02:17:34;;;;;;;14.32;10.68;;;;;;;;;;4389647;32;20188;-68
2022/09/03 02:20:05;;;;;;;16.75;11.70;;;;;;;;;;4389692;32;20595;-68
2022/09/03 02:22:32;;;;;;;18.23;11.38;;;;;;;;;;4389901;32;20559;-68
2022/09/03 02:24:59;;;;;;;15.93;10.25;;;;;;;;;;4377208;32;20105;-68
2022/09/03 02:27:26;;;;;;;17.35;10.77;;;;;;;;;;4392592;32;20156;-69
2022/09/03 02:29:53;;;;;;;13.77;9.68;;;;;;;;;;4393769;32;20246;-67
2022/09/03 02:32:19;;;;;;;14.10;9.75;;;;;;;;;;4392411;32;20070;-68
2022/09/03 02:34:46;;;;;;;17.37;9.73;;;;;;;;;;4392109;32;20447;-68
2022/09/03 02:37:17;;;;;;;15.05;9.85;;;;;;;;;;4393838;32;20177;-69
2022/09/03 02:39:44;;;;;;;15.45;10.50;;;;;;;;;;4392423;32;20120;-67
2022/09/03 02:42:12;;;;;;;13.18;9.32;;;;;;;;;;4393449;32;20166;-69
2022/09/03 02:44:44;;;;;;;12.68;9.32;;;;;;;;;;4392176;32;20097;-69
2022/09/03 02:47:10;;;;;;;13.88;9.23;;;;;;;;;;4392230;32;20165;-69
2022/09/03 02:49:37;;;;;;;12.88;8.57;;;;;;;;;;4393270;32;20496;-68
2022/09/03 02:52:08;;;;;;;14.87;8.95;;;;;;;;;;4393359;32;20157;-69
2022/09/03 02:54:38;;;;;;;11.77;8.00;;;;;;;;;;4379989;32;20083;-68
2022/09/03 02:57:10;;;;;;;11.80;8.57;;;;;;;;;;4392197;32;20085;-68
2022/09/03 02:59:38;;;;;;;11.48;8.27;;;;;;;;;;4391895;32;20093;-68
2022/09/03 03:02:05;;;;;;;13.90;7.78;;;;;;;;;;4393101;32;20074;-68
2022/09/03 03:04:32;;;;;;;13.05;7.80;;;;;;;;;;4391954;32;20146;-68
2022/09/03 03:06:59;;;;;;;10.18;7.70;;;;;;;;;;4392177;32;20074;-69
2022/09/03 03:09:26;;;;;;;9.98;7.20;;;;;;;;;;4393296;32;20085;-68
2022/09/03 03:11:54;;;;;;;9.13;6.68;;;;;;;;;;4391838;32;20124;-69
2022/09/03 03:14:21;;;;;;;9.60;6.75;;;;;;;;;;4391530;32;20088;-68
2022/09/03 03:16:48;;;;;;;11.48;6.57;;;;;;;;;;4391572;32;20165;-69
2022/09/03 03:19:15;;;;;;;9.07;6.07;;;;;;;;;;4393188;32;20093;-68
2022/09/03 03:21:42;;;;;;;10.68;6.72;;;;;;;;;;4393055;32;20158;-68
2022/09/03 03:24:09;;;;;;;11.07;6.05;;;;;;;;;;4391575;32;20077;-68
2022/09/03 03:26:35;;;;;;;9.23;5.65;;;;;;;;;;4391740;32;20500;-68
2022/09/03 03:29:05;;;;;;;7.55;5.60;;;;;;;;;;4392740;32;20105;-69
2022/09/03 03:31:32;;;;;;;7.95;5.30;;;;;;;;;;4391443;32;20096;-68
2022/09/03 03:34:03;;;;;;;9.02;5.70;;;;;;;;;;4391362;32;20524;-68
2022/09/03 03:36:32;;;;;;;8.68;5.82;;;;;;;;;;4391589;32;20089;-68
2022/09/03 03:39:00;;;;;;;7.85;5.37;;;;;;;;;;4390637;32;20089;-67
2022/09/03 03:41:30;;;;;;;13.62;6.07;;;;;;;;;;4391197;32;20158;-68
2022/09/03 03:44:00;;;;;;;10.80;6.57;;;;;;;;;;4391364;32;20156;-69
2022/09/03 03:46:39;;;;;;;9.18;6.12;;;;;;;;;;4378800;32;20085;-67
2022/09/03 03:49:06;;;;;;;8.15;6.00;;;;;;;;;;4391345;32;20231;-68
2022/09/03 03:51:34;;;;;;;9.02;6.30;;;;;;;;;;4391505;32;20158;-69
2022/09/03 03:54:01;;;;;;;8.45;6.10;;;;;;;;;;4391144;32;20076;-69
2022/09/03 03:56:27;;;;;;;9.20;6.10;;;;;;;;;;4391075;32;20165;-67
2022/09/03 03:58:54;;;;;;;8.15;5.90;;;;;;;;;;4391087;32;20166;-68
2022/09/03 04:01:23;;;;;;;10.80;6.72;;;;;;;;;;4378709;32;20085;-68
2022/09/03 04:03:50;;;;;;;10.75;7.03;;;;;;;;;;4391053;32;20569;-68
2022/09/03 04:06:18;;;;;;;9.48;6.90;;;;;;;;;;4390913;32;20069;-68
2022/09/03 04:08:46;;;;;;;10.43;6.47;;;;;;;;;;4378316;32;20140;-68
2022/09/03 04:11:21;;;;;;;10.30;5.93;;;;;;;;;;4390727;32;20081;-68
2022/09/03 04:13:49;;;;;;;9.57;6.65;;;;;;;;;;4390720;32;20475;-68
2022/09/03 04:16:23;;;;;;;10.65;6.65;;;;;;;;;;4391024;32;20147;-69
2022/09/03 04:18:50;;;;;;;11.65;6.53;;;;;;;;;;4392174;32;20098;-68
2022/09/03 04:21:19;;;;;;;11.30;7.20;;;;;;;;;;4390551;32;20112;-69
2022/09/03 04:23:47;;;;;;;9.10;6.05;;;;;;;;;;4390603;32;20078;-68
2022/09/03 04:26:23;;;;;;;9.02;6.00;;;;;;;;;;4378416;32;20243;-68
2022/09/03 04:28:50;;;;;;;10.10;6.93;;;;;;;;;;4390923;32;20085;-68
2022/09/03 04:31:18;;;;;;;14.43;7.18;;;;;;;;;;4390546;32;20170;-69
2022/09/03 04:33:44;;;;;;;12.57;7.00;;;;;;;;;;4390342;32;20089;-68
2022/09/03 04:36:22;;;;;;;10.98;6.62;;;;;;;;;;4391933;32;20161;-69
2022/09/03 04:38:52;;;;;;;9.52;6.47;;;;;;;;;;4390624;32;20109;-69
2022/09/03 04:41:21;;;;;;;7.00;5.07;;;;;;;;;;4390409;32;20096;-68
2022/09/03 04:43:49;;;;;;;5.30;2.60;;;;;;;;;;4391710;32;20468;-69
2022/09/03 04:46:15;;;;;;;5.55;3.20;;;;;;;;;;4391624;32;20485;-68
2022/09/03 04:48:42;;;;;;;6.07;2.97;;;;;;;;;;4392547;32;20137;-69
